Yuendumu, Australia
Current Conditions -  °F | °C
As of 9:00 AM on Wednesday 22 Oct 2014 (Local Time) from YBAS Reporting Station
Clear Clear  
Wind Chill: 90°   Ceiling: Unl
Heat Index: 90°   Visibility: 6mi
Dew Point: 28°   Wind: 15mph
Humidity: 11%   Direction: 10°N
Pressure: 30.12"   Gusts: NA
Location:  22.26°S, 131.8°E
Report Text: YBAS 220000Z 01013KT CAVOK 32/M02 Q1020
Loading
Personal Weather Stations






























Interactive Weather Map
Tropical Storm Tracking
New forecast layout! Learn more

10-Day Weather Forecast

Advertisements
Track Severe Weather on mobile